Tiempo atmosférico en la estación meteorológica de Tineo, Soto de la Barca, Asturias (285 m.)



Fecha
DESCASC
Temp. máxima en grados centígrados (hora)
DESCASC
Temp. mínima en grados centígrados (hora)
DESCASC
Temp. media en grados centígrados
DESCASC
Racha de viento máxima en m/sg (hora)
DESCASC
Velocidad máxima media en intervalos de 10 minutos(hora)
DESCASC
Precipitaciones diarias en mm
DESCASC
Precipitaciones de 00:00 a 06:00 en mm
DESCASC
Precipitaciones de 06:00 a 12:00 en mm
DESCASC
Precipitaciones de 12:00 a 18:00 en mm
DESCASC
Precipitaciones de 18:00 a 24:00 en mm
DESCASC

Gráficas

Temp. máximas Temp. mínimas Temp. medias Precipitaciones Rachas de viento máximas Velocidades máximas media en intervalos de 10 minutos

Datos horarios

Fecha y hora oficial Temperatura (ºC) Velocidad del viento (km/h) Dirección del viento Racha (km/h) Dirección de racha Precipitación (mm) Presión (hPa) Tendencia (hPa) Humedad (%)
2020-01-18 23:00:00 6.7 0 Calma 5 Oeste 0.2 -- -- 95
2020-01-18 22:00:00 7 3 Sudoeste 5 Sudoeste 0.4 -- -- 96
2020-01-18 21:00:00 7.3 3 Sudoeste 8 Sur 0 -- -- 96
2020-01-18 20:00:00 7.2 4 Oeste 6 Oeste 0 -- -- 96
2020-01-18 19:00:00 7.3 0 Calma 18 Noroeste 1.2 -- -- 95
2020-01-18 18:00:00 8.8 3 Sudoeste 15 Sur 1.6 -- -- 86
2020-01-18 17:00:00 10 8 Sur 16 Sur 0 -- -- 70
2020-01-18 16:00:00 10 3 Sur 14 Sudeste 0 -- -- 89
2020-01-18 15:00:00 10.4 15 Noroeste 33 Noroeste 3 -- -- 88
2020-01-18 14:00:00 11.5 5 Oeste 15 Oeste 0 -- -- 81
2020-01-18 13:00:00 8.4 3 Noroeste 10 Oeste 0 -- -- 82
2020-01-18 12:00:00 7.6 3 Sudeste 6 Sudeste 0 -- -- 85
2020-01-18 11:00:00 5.9 2 Este 5 Este 0 -- -- 92
2020-01-18 10:00:00 3.7 0 Calma 5 Sudeste 0 -- -- 97
2020-01-18 09:00:00 3.9 2 Sudeste 5 Oeste 0 -- -- 96
2020-01-18 08:00:00 4 0 Calma 4 Noroeste 0.2 -- -- 96
2020-01-18 07:00:00 3.7 0 Calma 5 Oeste 0 -- -- 93
2020-01-18 06:00:00 4.6 2 Sudeste 6 Este 0 -- -- 92
2020-01-18 05:00:00 4.6 0 Calma 3 Sudeste 0 -- -- 92
2020-01-18 04:00:00 4.8 0 Calma 6 Sudeste 0 -- -- 91
2020-01-18 03:00:00 4.7 4 Este 8 Oeste 0 -- -- 89
2020-01-18 02:00:00 5.1 4 Oeste 10 Oeste 0 -- -- 90
2020-01-18 01:00:00 5.1 2 Norte 6 Sudeste 0 -- -- 91
2020-01-18 00:00:00 5.1 0 Calma 8 Oeste 0 -- -- 89
2020-01-17 23:00:00 5.1 2 Sudeste 6 Este 0 -- -- 89
2020-01-17 22:00:00 5.4 0 Calma 6 Oeste 0 -- -- 87
2020-01-17 21:00:00 5.6 0 Calma 4 Noroeste 0 -- -- 85
2020-01-17 20:00:00 6.2 4 Noroeste 5 Oeste 0 -- -- 82
2020-01-17 19:00:00 7.2 0 Calma 6 Sudoeste 0 -- -- 76
2020-01-17 18:00:00 8.5 3 Sur 6 Sudoeste 0 -- -- 71
2020-01-17 17:00:00 10 0 Calma 10 Oeste 0 -- -- 65
2020-01-17 16:00:00 10.3 4 Sudeste 17 Noroeste 0 -- -- 59
2020-01-17 15:00:00 10.5 6 Sudoeste 20 Noroeste 0 -- -- 59
2020-01-17 14:00:00 10.2 5 Noroeste 17 Noroeste 0 -- -- 64
2020-01-17 13:00:00 10.8 3 Sudoeste 16 Sudeste 0 -- -- 61
2020-01-17 12:00:00 9.4 4 Noroeste 17 Noroeste 0 -- -- 72
2020-01-17 11:00:00 8.2 4 Noroeste 12 Oeste 0 -- -- 79
2020-01-17 10:00:00 5.6 4 Sudoeste 6 Sur 0 -- -- 93
2020-01-17 09:00:00 6.4 5 Sur 29 Noroeste 0.6 -- -- 88
2020-01-17 08:00:00 6.2 3 Oeste 9 Noroeste 0 -- -- 95
2020-01-17 07:00:00 6.9 2 Sudoeste 6 Sudeste 0.2 -- -- 95
2020-01-17 06:00:00 7.1 0 Calma 6 Oeste 0.4 -- -- 93
2020-01-17 05:00:00 7.2 2 Este 5 Sudoeste 0 -- -- 91
2020-01-17 04:00:00 8 3 Sudoeste 27 Noroeste 0.4 -- -- 87
2020-01-17 03:00:00 9.1 10 Noroeste 21 Oeste 0 -- -- 77
2020-01-17 02:00:00 10.5 5 Sudoeste 19 Sur 0 -- -- 68
2020-01-17 01:00:00 10.2 7 Sudoeste 22 Oeste 0 -- -- 70
2020-01-17 00:00:00 10 4 Sudoeste 17 Sur 0 -- -- 73
2020-01-16 23:00:00 10 7 Sudoeste 21 Oeste 0 -- -- 80
2020-01-16 22:00:00 9.1 8 Sudoeste 20 Sudoeste 0 -- -- 86
2020-01-16 21:00:00 8.5 4 Sudoeste 12 Oeste 0.8 -- -- 92
2020-01-16 20:00:00 9.2 2 Noroeste 30 Noroeste 3.2 -- -- 88
2020-01-16 19:00:00 13.2 8 Noroeste 29 Noroeste 0.2 -- -- 71
2020-01-16 18:00:00 15.7 5 Oeste 22 Oeste 0 -- -- 55
2020-01-16 17:00:00 16.4 3 Oeste 16 Sur 0 -- -- 50
2020-01-16 16:00:00 17.3 4 Oeste 24 Sur 0 -- -- 49
2020-01-16 15:00:00 17.8 6 Sudoeste 27 Sudoeste 0 -- -- 49
2020-01-16 14:00:00 18.7 5 Sudoeste 30 Sur 0 -- -- 45
2020-01-16 13:00:00 18.5 8 Noroeste 42 Sudeste 0 -- -- 46
2020-01-16 12:00:00 17.8 6 Nordeste 23 Oeste 0 -- -- 50
2020-01-16 11:00:00 16.2 4 Noroeste 20 Oeste 0 -- -- 53
2020-01-16 10:00:00 15.1 5 Oeste 17 Oeste 0 -- -- 59
2020-01-16 09:00:00 15.5 8 Sudoeste 14 Oeste 0 -- -- 58
2020-01-16 08:00:00 15.8 7 Oeste 14 Noroeste 0 -- -- 59
2020-01-16 07:00:00 15.6 8 Oeste 25 Noroeste 0 -- -- 59
2020-01-16 06:00:00 13.7 12 Oeste 24 Oeste 0 -- -- 62
2020-01-16 05:00:00 14.2 10 Oeste 28 Oeste 0 -- -- 60
2020-01-16 04:00:00 6.9 3 Oeste 10 Noroeste 0 -- -- 97
2020-01-16 03:00:00 5.2 2 Sudoeste 8 Noroeste 0 -- -- 98
2020-01-16 02:00:00 4.7 0 Calma 6 Sudeste 0 -- -- 98
2020-01-16 01:00:00 4.6 0 Calma 5 Oeste 0 -- -- 98
2020-01-16 00:00:00 4.8 0 Calma 3 Sudeste 0 -- -- 98
2020-01-15 23:00:00 5.2 0 Calma 5 Sudeste 0 -- -- 97
2020-01-15 22:00:00 5.8 0 Calma 4 Sudeste 0 -- -- 96
2020-01-15 21:00:00 6.7 0 Calma 7 Sur 0 -- -- 94
2020-01-15 20:00:00 8.7 5 Sudeste 15 Sudeste 0 -- -- 91
2020-01-15 19:00:00 9.3 7 Sudeste 14 Sur 0 -- -- 89
2020-01-15 18:00:00 10.8 4 Sudeste 19 Sudeste 0 -- -- 85
2020-01-15 17:00:00 12.2 8 Este 22 Este 0 -- -- 82
2020-01-15 16:00:00 12.4 6 Sudeste 15 Sudeste 0 -- -- 80
2020-01-15 15:00:00 13.1 3 Oeste 10 Oeste 0 -- -- 73
2020-01-15 14:00:00 14 2 Sur 8 Noroeste 0 -- -- 77
2020-01-15 13:00:00 12.5 3 Noroeste 10 Nordeste 0 -- -- 85
2020-01-15 12:00:00 10.9 3 Noroeste 7 Sur 0 -- -- 91
2020-01-15 11:00:00 9.9 2 Sur 11 Sudoeste 0 -- -- 91
2020-01-15 10:00:00 9.3 8 Oeste 14 Oeste 1 -- -- 91
2020-01-15 09:00:00 9.2 0 Calma 39 Noroeste 4.2 -- -- 91
2020-01-15 08:00:00 13 5 Oeste 18 Noroeste 0 -- -- 68
2020-01-15 07:00:00 13.7 4 Sudoeste 33 Noroeste 0 -- -- 63
2020-01-15 06:00:00 15.9 4 Noroeste 29 Sudoeste 0 -- -- 49
2020-01-15 05:00:00 15.2 5 Oeste 25 Sudoeste 0 -- -- 50
2020-01-15 04:00:00 14.8 6 Oeste 20 Sudoeste 0 -- -- 54
2020-01-15 03:00:00 15 9 Noroeste 25 Oeste 0 -- -- 51
2020-01-15 02:00:00 14.8 9 Oeste 30 Sudoeste 0 -- -- 54
2020-01-15 01:00:00 15 9 Oeste 32 Oeste 0 -- -- 53
2020-01-15 00:00:00 13.6 6 Sudoeste 22 Sudoeste 0 -- -- 52
2020-01-14 23:00:00 13.3 5 Oeste 22 Oeste 0 -- -- 53
2020-01-14 22:00:00 14.4 10 Oeste 27 Sudoeste 0 -- -- 50
2020-01-14 21:00:00 14.9 10 Oeste 31 Oeste 0 -- -- 48
2020-01-14 20:00:00 13.4 6 Oeste 26 Oeste 0 -- -- 51
2020-01-14 19:00:00 13.9 8 Oeste 23 Sudoeste 0 -- -- 54
2020-01-14 18:00:00 14.7 8 Oeste 22 Oeste 0 -- -- 51
2020-01-14 17:00:00 15.3 5 Oeste 37 Oeste 0 -- -- 49
2020-01-14 16:00:00 15.3 8 Sudoeste 34 Sur 0 -- -- 46
2020-01-14 15:00:00 15.8 10 Sudoeste 42 Oeste 0 -- -- 44
2020-01-14 14:00:00 15.5 9 Oeste 28 Sur 0 -- -- 45
2020-01-14 13:00:00 15.2 8 Sur 21 Sur 0 -- -- 47
2020-01-14 12:00:00 14.1 5 Nordeste 25 Sur 0 -- -- 50
2020-01-14 11:00:00 12.5 3 Sudoeste 9 Sur 0 -- -- 62
2020-01-14 10:00:00 13.1 3 Este 13 Oeste 0 -- -- 58
2020-01-14 09:00:00 13.6 3 Oeste 14 Oeste 0 -- -- 57
2020-01-14 08:00:00 13.7 3 Noroeste 17 Noroeste 0 -- -- 58
2020-01-14 07:00:00 13.7 3 Sur 14 Este 0 -- -- 57
2020-01-14 06:00:00 13.2 4 Sudoeste 11 Sudeste 0 -- -- 58
2020-01-14 05:00:00 13.3 4 Oeste 16 Nordeste 0 -- -- 57
2020-01-14 04:00:00 13 4 Sur 17 Noroeste 0 -- -- 57
2020-01-14 03:00:00 13.7 5 Oeste 21 Noroeste 0 -- -- 53
2020-01-14 02:00:00 13.8 5 Este 32 Noroeste 0 -- -- 51
2020-01-14 01:00:00 13.6 8 Noroeste 30 Noroeste 0 -- -- 49
2020-01-14 00:00:00 13.8 7 Noroeste 32 Sudoeste 0 -- -- 47
2020-01-13 23:00:00 13.7 7 Oeste 27 Sudoeste 0 -- -- 47
2020-01-13 22:00:00 13.6 4 Noroeste 20 Sudeste 0 -- -- 47
2020-01-13 21:00:00 13.5 4 Oeste 16 Oeste 0 -- -- 50
2020-01-13 20:00:00 14.2 6 Oeste 17 Sur 0 -- -- 46
2020-01-13 19:00:00 14.4 5 Sur 21 Sudeste 0 -- -- 47
2020-01-13 18:00:00 14.5 3 Sudoeste 28 Sur 0 -- -- 50
2020-01-13 17:00:00 15.9 6 Sudeste 21 Sudeste 0 -- -- 43
2020-01-13 16:00:00 15.8 4 Sudeste 19 Sudeste 0 -- -- 41
2020-01-13 15:00:00 15.8 4 Norte 17 Oeste 0 -- -- 44
2020-01-13 14:00:00 14.3 3 Noroeste 24 Oeste 0 -- -- 59
2020-01-13 13:00:00 9.6 3 Noroeste 10 Oeste 0 -- -- 83
2020-01-13 12:00:00 6.8 3 Norte 7 Sudeste 0 -- -- 92
2020-01-13 11:00:00 3.5 0 Calma 7 Noroeste 0 -- -- 100
2020-01-13 10:00:00 1.4 0 Calma 3 Sudeste 0 -- -- 100
2020-01-13 09:00:00 1.5 0 Calma 3 Noroeste 0 -- -- 100
2020-01-13 08:00:00 1.7 0 Calma 6 Oeste 0 -- -- 100
2020-01-13 07:00:00 1.8 0 Calma 4 Sur 0 -- -- 99
2020-01-13 06:00:00 2 2 Noroeste 3 Sudeste 0 -- -- 99
2020-01-13 05:00:00 2.2 0 Calma 8 Oeste 0 -- -- 99
2020-01-13 04:00:00 2.1 2 Sudeste 3 Sudeste 0 -- -- 99
2020-01-13 03:00:00 2.2 0 Calma 5 Noroeste 0 -- -- 99
2020-01-13 02:00:00 2.4 0 Calma 4 Sudeste 0 -- -- 99
2020-01-13 01:00:00 2.8 0 Calma 4 Noroeste 0 -- -- 99
2020-01-13 00:00:00 2.6 0 Calma 3 Noroeste 0 -- -- 98
2020-01-12 23:00:00 2.5 0 Calma 3 Noroeste 0 -- -- 97
2020-01-12 22:00:00 3.1 0 Calma 0 Calma 0 -- -- 96
2020-01-12 21:00:00 3.8 0 Calma 3 Este 0 -- -- 94
2020-01-12 20:00:00 5.1 0 Calma 2 Noroeste 0 -- -- 91
2020-01-12 19:00:00 6.5 0 Calma 4 Este 0 -- -- 87
2020-01-12 18:00:00 7.3 0 Calma 3 Este 0 -- -- 84
2020-01-12 17:00:00 8.3 2 Sur 5 Sur 0 -- -- 81
2020-01-12 16:00:00 7.5 3 Sur 5 Sur 0 -- -- 81
2020-01-12 15:00:00 7.9 0 Calma 4 Sur 0 -- -- 77
2020-01-12 14:00:00 7.5 2 Sur 3 Oeste 0 -- -- 79
2020-01-12 13:00:00 5.1 0 Calma 3 Oeste 0 -- -- 84
2020-01-12 12:00:00 2.5 0 Calma 3 Noroeste 0 -- -- 99
2020-01-12 11:00:00 0.2 0 Calma 5 Noroeste 0.2 -- -- 100
2020-01-12 10:00:00 -1.4 0 Calma 0 Calma 0 -- -- 100
2020-01-12 09:00:00 -1.5 0 Calma 3 Sudeste 0 -- -- 100
2020-01-12 08:00:00 -1.2 0 Calma 5 Noroeste 0 -- -- 100
2020-01-12 07:00:00 -1 0 Calma 4 Sur 0 -- -- 100
2020-01-12 06:00:00 -0.7 0 Calma 6 Noroeste 0 -- -- 100
2020-01-12 05:00:00 -0.3 0 Calma 6 Noroeste 0 -- -- 100
2020-01-12 04:00:00 -0.2 0 Calma 9 Noroeste 0 -- -- 100
2020-01-12 03:00:00 0.1 0 Calma 4 Sur 0 -- -- 100
2020-01-12 02:00:00 0.2 0 Calma 5 Noroeste 0 -- -- 99
2020-01-12 01:00:00 0.6 2 Sur 3 Sudeste 0 -- -- 100
2020-01-12 00:00:00 0.7 0 Calma 4 Oeste 0 -- -- 98
2020-01-11 23:00:00 1.1 0 Calma 5 Oeste 0 -- -- 98
2020-01-11 22:00:00 1.9 0 Calma 2 Noroeste 0 -- -- 97
2020-01-11 21:00:00 2.6 0 Calma 3 Noroeste 0 -- -- 96
2020-01-11 20:00:00 3.5 0 Calma 2 Sudeste 0 -- -- 94
2020-01-11 19:00:00 4.9 0 Calma 3 Este 0 -- -- 91
2020-01-11 18:00:00 5.9 0 Calma 2 Oeste 0 -- -- 88
2020-01-11 17:00:00 6.6 0 Calma 4 Sudoeste 0 -- -- 86
2020-01-11 16:00:00 6.5 2 Sudoeste 4 Sudoeste 0 -- -- 89
2020-01-11 15:00:00 7.7 2 Sur 4 Sudoeste 0 -- -- 85
2020-01-11 14:00:00 6.3 0 Calma 4 Sudeste 0 -- -- 96
2020-01-11 13:00:00 3.3 3 Noroeste 4 Noroeste 0 -- -- 100
2020-01-11 12:00:00 2.2 0 Calma 5 Oeste 0 -- -- 100
2020-01-11 11:00:00 1.1 0 Calma 6 Noroeste 0 -- -- 100
2020-01-11 10:00:00 0.7 2 Oeste 8 Oeste 0 -- -- 100
2020-01-11 09:00:00 0.9 0 Calma 5 Oeste 0 -- -- 100
2020-01-11 08:00:00 1 0 Calma 9 Sudoeste 0 -- -- 100
2020-01-11 07:00:00 1.3 4 Noroeste 8 Oeste 0 -- -- 100
2020-01-11 06:00:00 1.7 5 Noroeste 8 Noroeste 0 -- -- 100
2020-01-11 05:00:00 1.9 2 Sudoeste 7 Noroeste 0 -- -- 100
2020-01-11 04:00:00 1.9 0 Calma 3 Este 0 -- -- 100
2020-01-11 03:00:00 2.3 0 Calma 6 Oeste 0 -- -- 100
2020-01-11 02:00:00 2.2 0 Calma 4 Oeste 0 -- -- 99
2020-01-11 01:00:00 2.5 3 Oeste 4 Noroeste 0 -- -- 100
2020-01-11 00:00:00 2.8 0 Calma 2 Este 0 -- -- 99
2020-01-10 23:00:00 2.7 0 Calma 6 Oeste 0 -- -- 99
2020-01-10 22:00:00 2.5 0 Calma 2 Sudeste 0 -- -- 98
2020-01-10 21:00:00 3.2 0 Calma 3 Este 0 -- -- 97
2020-01-10 20:00:00 4.1 0 Calma 4 Este 0 -- -- 96
2020-01-10 19:00:00 5.1 0 Calma 4 Noroeste 0 -- -- 94
2020-01-10 18:00:00 6.7 0 Calma 4 Sudeste 0 -- -- 91
2020-01-10 17:00:00 8.2 3 Sudeste 13 Sudeste 0 -- -- 87
2020-01-10 16:00:00 9.2 8 Sudeste 12 Sudeste 0 -- -- 84
2020-01-10 15:00:00 9.4 2 Sur 6 Noroeste 0 -- -- 90
2020-01-10 14:00:00 8.5 3 Oeste 8 Noroeste 0 -- -- 93
2020-01-10 13:00:00 7.3 6 Oeste 10 Oeste 0 -- -- 96
2020-01-10 12:00:00 6.6 5 Noroeste 8 Oeste 0.2 -- -- 98
2020-01-10 11:00:00 6 0 Calma 5 Noroeste 0.2 -- -- 100
2020-01-10 10:00:00 5.2 0 Calma 6 Oeste 0.4 -- -- 99
2020-01-10 09:00:00 4.9 0 Calma 4 Noroeste 0.4 -- -- 99
2020-01-10 08:00:00 4.9 0 Calma 4 Oeste 0.6 -- -- 98
2020-01-10 07:00:00 4.8 0 Calma 9 Oeste 0.4 -- -- 97
2020-01-10 06:00:00 5.1 2 Oeste 5 Noroeste 0 -- -- 97
2020-01-10 05:00:00 5.5 3 Oeste 9 Oeste 0.4 -- -- 95
2020-01-10 04:00:00 5.2 2 Noroeste 9 Noroeste 0 -- -- 94
2020-01-10 03:00:00 5.6 0 Calma 5 Noroeste 0 -- -- 93
2020-01-10 02:00:00 5.7 0 Calma 10 Sudoeste 0 -- -- 92
2020-01-10 01:00:00 6.8 0 Calma 7 Sur 0.4 -- -- 92
2020-01-10 00:00:00 7.1 2 Sur 5 Sudoeste 0.4 -- -- 90
2020-01-09 23:00:00 8 2 Sur 5 Sudoeste 0 -- -- 82
2020-01-09 22:00:00 8.4 0 Calma 9 Sudoeste 0 -- -- 77
2020-01-09 21:00:00 9.3 5 Sudoeste 12 Oeste 0 -- -- 68
2020-01-09 20:00:00 9.2 4 Oeste 15 Oeste 0 -- -- 70
2020-01-09 19:00:00 7.9 3 Sudoeste 15 Sudeste 0 -- -- 79
2020-01-09 18:00:00 9.6 5 Sudeste 16 Sudeste 0 -- -- 71
2020-01-09 17:00:00 10.5 6 Este 36 Noroeste 0 -- -- 72
2020-01-09 16:00:00 11.1 5 Sur 39 Noroeste 0.2 -- -- 76
2020-01-09 15:00:00 12.5 4 Sudeste 62 Noroeste 1.6 -- -- 81
2020-01-09 14:00:00 17.5 15 Noroeste 52 Noroeste 0 -- -- 55
2020-01-09 13:00:00 19.3 6 Este 28 Norte 0 -- -- 52
2020-01-09 12:00:00 18.1 5 Norte 17 Noroeste 0 -- -- 59
2020-01-09 11:00:00 16.6 3 Oeste 9 Oeste 0 -- -- 63
2020-01-09 10:00:00 13 5 Sudoeste 10 Oeste 0 -- -- 78
2020-01-09 09:00:00 7.7 3 Oeste 10 Oeste 0 -- -- 97
2020-01-09 08:00:00 5.7 3 Noroeste 6 Noroeste 0 -- -- 100
2020-01-09 07:00:00 4.5 0 Calma 5 Sudeste 0 -- -- 98
2020-01-09 06:00:00 4.8 0 Calma 4 Noroeste 0 -- -- 99
2020-01-09 05:00:00 5.2 0 Calma 4 Noroeste 0 -- -- 98
2020-01-09 04:00:00 5.3 0 Calma 5 Noroeste 0 -- -- 98
2020-01-09 03:00:00 5.4 0 Calma 3 Noroeste 0 -- -- 96
2020-01-09 02:00:00 6.1 0 Calma 3 Noroeste 0 -- -- 95
2020-01-09 01:00:00 6.6 0 Calma 7 Noroeste 0 -- -- 92
2020-01-09 00:00:00 7.8 4 Noroeste 10 Sudeste 0 -- -- 90
2020-01-08 23:00:00 7.7 2 Oeste 5 Noroeste 0 -- -- 90
2020-01-08 22:00:00 7.6 0 Calma 3 Noroeste 0 -- -- 87
2020-01-08 21:00:00 8 0 Calma 3 Oeste 0 -- -- 86
2020-01-08 20:00:00 8.4 0 Calma 3 Este 0 -- -- 78
2020-01-08 19:00:00 10.5 2 Sudeste 8 Sudeste 0 -- -- 70
2020-01-08 18:00:00 12.6 5 Sudeste 8 Sudeste 0 -- -- 62
2020-01-08 17:00:00 14.2 0 Calma 3 Oeste 0 -- -- 65
2020-01-08 16:00:00 13.7 0 Calma 3 Sudoeste 0 -- -- 68
2020-01-08 15:00:00 12.7 0 Calma 2 Sudoeste 0 -- -- 67
2020-01-08 14:00:00 12.4 0 Calma 5 Noroeste 0 -- -- 66
2020-01-08 13:00:00 9.8 0 Calma 4 Noroeste 0 -- -- 68
2020-01-08 12:00:00 7.7 0 Calma 4 Noroeste 0 -- -- 81
2020-01-08 11:00:00 6.1 0 Calma 4 Este 0 -- -- 89
2020-01-08 10:00:00 2.7 0 Calma 3 Noroeste 0 -- -- 97
2020-01-08 09:00:00 2.5 0 Calma 0 Calma 0 -- -- 96
2020-01-08 08:00:00 3 0 Calma 2 Noroeste 0 -- -- 97
2020-01-08 07:00:00 2.4 0 Calma 2 Sudeste 0 -- -- 96
2020-01-08 06:00:00 3 0 Calma 3 Noroeste 0 -- -- 93
2020-01-08 05:00:00 4.2 2 Sudoeste 3 Sudoeste 0 -- -- 93
2020-01-08 04:00:00 4.1 0 Calma 0 Calma 0 -- -- 94
2020-01-08 03:00:00 3.7 0 Calma 2 Sudeste 0 -- -- 95
2020-01-08 02:00:00 3.1 0 Calma 2 Este 0 -- -- 96
2020-01-08 01:00:00 3.3 0 Calma 3 Noroeste 0 -- -- 94
2020-01-08 00:00:00 3.6 0 Calma 2 Noroeste 0 -- -- 94
2020-01-07 23:00:00 3.5 0 Calma 3 Noroeste 0 -- -- 95
2020-01-07 22:00:00 3.1 0 Calma 3 Noroeste 0 -- -- 94
2020-01-07 21:00:00 3.1 0 Calma 2 Sur 0 -- -- 92
2020-01-07 20:00:00 3.9 0 Calma 4 Noroeste 0 -- -- 90
2020-01-07 19:00:00 5.2 0 Calma 3 Este 0 -- -- 85
2020-01-07 18:00:00 6.6 0 Calma 3 Noroeste 0 -- -- 81
2020-01-07 17:00:00 7.5 0 Calma 3 Sudoeste 0 -- -- 79
2020-01-07 16:00:00 7.3 2 Sur 4 Sur 0 -- -- 80
2020-01-07 15:00:00 7 0 Calma 3 Sudoeste 0 -- -- 79
2020-01-07 14:00:00 6.9 0 Calma 3 Oeste 0 -- -- 80
2020-01-07 13:00:00 5.1 0 Calma 2 Sudoeste 0 -- -- 81
2020-01-07 12:00:00 2.2 0 Calma 3 Noroeste 0 -- -- 92
2020-01-07 11:00:00 0.1 0 Calma 2 Este 0.2 -- -- 100
2020-01-07 10:00:00 -2.1 0 Calma 4 Noroeste 0 -- -- 100
2020-01-07 09:00:00 -2.3 0 Calma 6 Oeste 0 -- -- 99
2020-01-07 08:00:00 -2.2 3 Noroeste 5 Noroeste 0 -- -- 99
2020-01-07 07:00:00 -2.1 0 Calma 2 Este 0 -- -- 99
2020-01-07 06:00:00 -2 0 Calma 3 Oeste 0 -- -- 99
2020-01-07 05:00:00 -1.4 0 Calma 3 Sudoeste 0 -- -- 99
2020-01-07 04:00:00 -1.5 0 Calma 3 Noroeste 0 -- -- 99
2020-01-07 03:00:00 -1.1 0 Calma 3 Sudeste 0 -- -- 99
2020-01-07 02:00:00 -0.6 0 Calma 6 Oeste 0 -- -- 99
2020-01-07 01:00:00 -0.4 3 Noroeste 6 Noroeste 0 -- -- 98
2020-01-07 00:00:00 0.1 2 Oeste 5 Oeste 0 -- -- 98
2020-01-06 23:00:00 0.8 0 Calma 3 Noroeste 0 -- -- 97
2020-01-06 22:00:00 1.6 0 Calma 3 Sudeste 0 -- -- 97
2020-01-06 21:00:00 2 0 Calma 4 Este 0 -- -- 95
2020-01-06 20:00:00 2.9 0 Calma 3 Norte 0 -- -- 94
2020-01-06 19:00:00 3.8 0 Calma 4 Noroeste 0 -- -- 90
2020-01-06 18:00:00 5.4 3 Sudeste 7 Sudoeste 0 -- -- 86
2020-01-06 17:00:00 6.4 0 Calma 10 Sudeste 0 -- -- 83
2020-01-06 16:00:00 6 3 Sudoeste 6 Oeste 0 -- -- 86
2020-01-06 15:00:00 6.6 0 Calma 3 Sudoeste 0 -- -- 85
2020-01-06 14:00:00 5.3 0 Calma 9 Oeste 0 -- -- 88
2020-01-06 13:00:00 3.6 3 Sudeste 9 Sudoeste 0 -- -- 92
2020-01-06 12:00:00 1.7 8 Oeste 13 Oeste 0 -- -- 99
2020-01-06 11:00:00 -0.4 3 Sudeste 12 Noroeste 0 -- -- 100
2020-01-06 10:00:00 -1.5 0 Calma 5 Noroeste 0 -- -- 100